Main page
METAR-TAF:

METAR-TAF

Airports :

Basra International Airport

Basra, Iraq

latitude: 30-32-56N, longitude: 47-39-45E, elevation: 1 m

Current weather observation

The report was made 18 minutes ago, at 19:00 UTC
Wind 10 kt from the East/Southeast
Temperature 25°C
Humidity 65%
Pressure 1008 hPa
Visibility 10 km or more
no clouds below 1500 m and no cumulonimbus

METAR: ORMM 181900Z 12010KT CAVOK 25/18 Q1008 NOSIG

Time: 22:18 (19:18 UTC)

Forecast

Forecast valid from 18 at 12 UTC to 19 at 12 UTC
Wind 10 kt from the East
Visibility: 8000 m
Few clouds at a height of 4000 ft
Broken clouds at a height of 10000 ft

TAF: ORMM 1812/1912 09010KT 8000 FEW040 BKN100

Weather observations and forecasts of more than 4000 airports (METAR and TAF reports).

The available stations are represented by yellow and red dots on the map.

Hover mouse over dot to see the name of the station.

Then click to see weather observations and forecasts.

To change the map : click on the green buttons with a black cross to zoom in, on the green button with a dash to zoom out, or on the green arrows for adjacent maps.


METAR-TAF: